createdAt,value
2022-07-31T00:04:46.605Z,17.23
2022-07-31T00:09:54.426Z,15.77
2022-07-31T00:14:58.053Z,16.90
2022-07-31T00:20:03.110Z,16.60
2022-07-31T00:25:07.828Z,16.45
2022-07-31T00:30:13.123Z,14.82
2022-07-31T00:35:17.885Z,14.75
2022-07-31T00:40:21.303Z,13.98
2022-07-31T00:45:29.017Z,14.70
2022-07-31T00:50:34.222Z,13.68
2022-07-31T00:55:42.886Z,14.20
2022-07-31T01:00:55.419Z,10.85
2022-07-31T01:06:00.238Z,10.77
2022-07-31T01:11:07.635Z,13.80
2022-07-31T01:16:19.390Z,10.18
2022-07-31T01:21:30.460Z,10.15
2022-07-31T01:26:43.824Z,8.43
2022-07-31T01:31:53.679Z,3.47
2022-07-31T01:37:05.458Z,1.38
2022-07-31T01:42:11.202Z,1.00
2022-07-31T01:47:21.092Z,1.20
2022-07-31T01:52:27.930Z,0.60
2022-07-31T01:57:33.184Z,0.80
2022-07-31T02:02:42.378Z,0.80
2022-07-31T02:07:48.213Z,0.70
2022-07-31T02:12:52.793Z,0.60
2022-07-31T02:17:59.856Z,0.70
2022-07-31T02:23:09.289Z,2.05
2022-07-31T02:28:16.067Z,0.80
2022-07-31T02:33:23.249Z,1.00
2022-07-31T02:38:29.255Z,0.70
2022-07-31T02:43:35.319Z,1.00
2022-07-31T02:48:50.578Z,0.70
2022-07-31T02:53:56.251Z,1.00
2022-07-31T02:59:02.761Z,1.20
2022-07-31T03:04:18.677Z,0.70
2022-07-31T03:09:22.542Z,0.70
2022-07-31T03:14:36.369Z,1.05
2022-07-31T03:19:41.806Z,0.80
2022-07-31T03:24:45.808Z,0.90
2022-07-31T03:29:49.554Z,0.95
2022-07-31T03:34:54.853Z,0.80
2022-07-31T03:39:58.509Z,0.80
2022-07-31T03:45:03.212Z,1.00
2022-07-31T03:50:10.043Z,1.00
2022-07-31T03:55:14.617Z,0.75
2022-07-31T04:00:20.626Z,0.90
2022-07-31T04:05:25.807Z,0.90
2022-07-31T04:10:29.664Z,0.57
2022-07-31T04:15:33.485Z,0.70
2022-07-31T04:20:38.543Z,0.70
2022-07-31T04:25:42.186Z,0.63
2022-07-31T04:30:58.664Z,0.82
2022-07-31T04:36:03.390Z,0.70
2022-07-31T04:41:06.757Z,0.80
2022-07-31T04:46:17.241Z,0.98
2022-07-31T04:51:24.595Z,1.35
2022-07-31T04:56:37.705Z,1.50
2022-07-31T05:01:43.582Z,1.38
2022-07-31T05:06:53.215Z,1.70
2022-07-31T05:11:56.771Z,1.80
2022-07-31T05:17:00.565Z,2.42
2022-07-31T05:22:18.909Z,2.55
2022-07-31T05:27:41.370Z,2.53
2022-07-31T05:32:44.916Z,2.53
2022-07-31T05:37:50.106Z,2.38
2022-07-31T05:42:55.813Z,2.10
2022-07-31T05:48:18.441Z,2.15
2022-07-31T05:53:23.418Z,2.55
2022-07-31T05:58:52.826Z,2.00
2022-07-31T06:03:56.184Z,2.05
2022-07-31T06:09:07.001Z,2.00
2022-07-31T06:14:13.803Z,2.38
2022-07-31T06:19:46.623Z,2.30
2022-07-31T06:24:51.820Z,2.90
2022-07-31T06:29:56.750Z,2.70
2022-07-31T06:35:00.049Z,2.80
2022-07-31T06:40:07.581Z,4.20
2022-07-31T06:45:48.487Z,4.68
2022-07-31T06:56:36.691Z,4.13
2022-07-31T07:01:40.194Z,4.60
2022-07-31T07:06:43.796Z,4.55
2022-07-31T07:11:54.478Z,3.47
2022-07-31T07:16:58.357Z,3.70
2022-07-31T07:22:02.317Z,4.43
2022-07-31T07:27:07.883Z,4.22
2022-07-31T07:32:13.337Z,4.30
2022-07-31T07:37:17.069Z,6.13
2022-07-31T07:42:22.782Z,6.00
2022-07-31T07:47:26.240Z,6.70
2022-07-31T07:52:50.500Z,6.82
2022-07-31T07:58:18.305Z,5.90
2022-07-31T08:03:50.071Z,5.82
2022-07-31T08:08:55.948Z,5.97
2022-07-31T08:14:20.493Z,5.70
2022-07-31T08:19:46.158Z,4.60
2022-07-31T08:24:53.138Z,4.80
2022-07-31T08:30:00.269Z,7.00
2022-07-31T08:35:06.026Z,5.53
2022-07-31T08:40:10.305Z,7.18
2022-07-31T08:45:16.102Z,6.97
2022-07-31T08:50:26.419Z,6.88
2022-07-31T08:55:55.409Z,6.88
2022-07-31T09:00:58.341Z,8.23
2022-07-31T09:06:01.723Z,6.03
2022-07-31T09:11:06.488Z,6.80
2022-07-31T09:16:15.858Z,8.13
2022-07-31T09:21:19.385Z,14.68
2022-07-31T09:26:34.511Z,17.60
2022-07-31T09:31:39.909Z,29.77
2022-07-31T09:37:09.200Z,28.80
2022-07-31T09:42:39.378Z,25.10
2022-07-31T09:48:15.251Z,21.13
2022-07-31T09:53:24.616Z,12.10
2022-07-31T09:58:33.753Z,7.30
2022-07-31T10:03:40.679Z,37.90
2022-07-31T10:08:46.465Z,15.40
2022-07-31T10:14:04.123Z,3.95
2022-07-31T10:19:13.501Z,4.10
2022-07-31T10:24:32.838Z,6.57
2022-07-31T10:29:39.414Z,12.38
2022-07-31T10:34:45.095Z,13.40
2022-07-31T10:40:15.304Z,16.30
2022-07-31T10:45:23.140Z,13.80
2022-07-31T10:50:46.796Z,12.30
2022-07-31T10:56:02.964Z,6.28
2022-07-31T11:01:21.169Z,5.80
2022-07-31T11:06:50.541Z,4.72
2022-07-31T11:12:18.849Z,7.78
2022-07-31T11:18:20.173Z,11.32
2022-07-31T11:23:18.820Z,11.60
2022-07-31T11:28:24.037Z,10.50
2022-07-31T11:33:42.753Z,8.43
2022-07-31T11:38:51.123Z,9.10
2022-07-31T11:43:55.957Z,9.50
2022-07-31T11:49:00.453Z,9.90
2022-07-31T11:54:05.523Z,14.30
2022-07-31T11:59:08.909Z,15.98
2022-07-31T12:04:33.222Z,14.45
2022-07-31T12:10:01.328Z,11.90
2022-07-31T12:15:02.957Z,11.32
2022-07-31T12:20:08.135Z,10.27
2022-07-31T12:25:12.895Z,10.13
2022-07-31T12:30:17.814Z,12.73
2022-07-31T12:35:22.123Z,9.60
2022-07-31T12:40:29.300Z,9.77
2022-07-31T12:45:34.953Z,14.23
2022-07-31T12:50:38.330Z,11.45
2022-07-31T12:55:43.071Z,10.18
2022-07-31T13:00:46.504Z,8.35
2022-07-31T13:05:52.150Z,7.28
2022-07-31T13:10:57.020Z,6.00
2022-07-31T13:16:00.476Z,5.55
2022-07-31T13:21:03.800Z,5.47
2022-07-31T13:26:08.736Z,4.43
2022-07-31T13:31:12.137Z,10.60
2022-07-31T13:36:15.723Z,4.40
2022-07-31T13:41:25.111Z,4.45
2022-07-31T13:46:30.109Z,4.30
2022-07-31T13:51:33.586Z,5.07
2022-07-31T13:56:43.244Z,4.78
2022-07-31T14:02:05.285Z,4.72
2022-07-31T14:07:09.630Z,4.35
2022-07-31T14:12:17.806Z,3.70
2022-07-31T14:17:21.146Z,3.88
2022-07-31T14:22:24.529Z,3.85
2022-07-31T14:27:29.216Z,4.43
2022-07-31T14:32:32.563Z,5.10
2022-07-31T14:37:35.935Z,8.55
2022-07-31T14:42:41.737Z,10.75
2022-07-31T14:47:46.501Z,8.63
2022-07-31T14:52:49.933Z,9.00
2022-07-31T14:57:54.664Z,9.25
2022-07-31T15:02:58.259Z,9.15
2022-07-31T15:08:02.675Z,6.13
2022-07-31T15:13:09.040Z,4.63
2022-07-31T15:18:12.796Z,4.03
2022-07-31T15:23:16.180Z,3.55
2022-07-31T15:28:20.909Z,3.20
2022-07-31T15:33:24.859Z,3.78
2022-07-31T15:38:28.227Z,3.67
2022-07-31T15:43:35.171Z,3.53
2022-07-31T15:48:39.385Z,3.47
2022-07-31T15:53:42.748Z,2.80
2022-07-31T15:58:49.858Z,3.67
2022-07-31T16:03:56.843Z,2.72
2022-07-31T16:09:03.145Z,3.47
2022-07-31T16:14:07.863Z,3.20
2022-07-31T16:19:11.439Z,2.97
2022-07-31T16:24:18.698Z,2.83
2022-07-31T16:29:59.487Z,3.72
2022-07-31T16:34:52.685Z,4.70
2022-07-31T16:39:59.773Z,8.73
2022-07-31T16:45:05.402Z,10.93
2022-07-31T16:50:09.876Z,8.80
2022-07-31T16:55:13.648Z,6.25
2022-07-31T17:00:18.897Z,6.03
2022-07-31T17:05:22.303Z,5.88
2022-07-31T17:10:27.024Z,7.93
2022-07-31T17:15:32.524Z,7.43
2022-07-31T17:20:37.243Z,7.18
2022-07-31T17:25:47.110Z,6.65
2022-07-31T17:30:54.255Z,5.22
2022-07-31T17:35:57.896Z,3.47
2022-07-31T17:41:03.177Z,3.90
2022-07-31T17:46:09.392Z,3.67
2022-07-31T17:51:20.844Z,3.75
2022-07-31T17:56:24.667Z,3.13
2022-07-31T18:01:29.624Z,3.08
2022-07-31T18:06:33.376Z,3.05
2022-07-31T18:11:36.701Z,3.30
2022-07-31T18:16:41.421Z,2.60
2022-07-31T18:21:44.782Z,2.90
2022-07-31T18:26:48.219Z,2.88
2022-07-31T18:31:52.907Z,2.67
2022-07-31T18:36:56.469Z,2.28
2022-07-31T18:41:59.855Z,2.15
2022-07-31T18:47:04.732Z,2.60
2022-07-31T18:52:08.547Z,2.63
2022-07-31T18:57:12.274Z,2.78
2022-07-31T19:02:17.051Z,2.65
2022-07-31T19:07:25.701Z,3.00
2022-07-31T19:12:29.108Z,2.67
2022-07-31T19:17:44.006Z,3.10
2022-07-31T19:22:48.585Z,3.20
2022-07-31T19:27:52.420Z,3.88
2022-07-31T19:32:57.575Z,3.40
2022-07-31T19:38:02.789Z,4.30
2022-07-31T19:43:06.207Z,3.97
2022-07-31T19:48:10.940Z,4.60
2022-07-31T19:53:14.807Z,4.10
2022-07-31T19:58:18.498Z,4.18
2022-07-31T20:03:23.296Z,4.15
2022-07-31T20:08:29.664Z,4.53
2022-07-31T20:13:37.785Z,4.53
2022-07-31T20:18:42.659Z,3.88
2022-07-31T20:23:48.955Z,4.10
2022-07-31T20:28:52.810Z,3.75
2022-07-31T20:33:58.296Z,3.72
2022-07-31T20:39:04.163Z,4.95
2022-07-31T20:44:07.614Z,4.78
2022-07-31T20:49:19.845Z,3.70
2022-07-31T20:54:36.527Z,4.47
2022-07-31T20:59:40.004Z,3.78
2022-07-31T21:04:44.869Z,4.50
2022-07-31T21:09:48.838Z,4.32
2022-07-31T21:14:52.156Z,4.07
2022-07-31T21:19:57.129Z,4.03
2022-07-31T21:25:02.118Z,3.92
2022-07-31T21:30:06.956Z,3.88
2022-07-31T21:35:12.984Z,3.40
2022-07-31T21:40:17.567Z,4.68
2022-07-31T21:45:22.160Z,4.88
2022-07-31T21:50:30.517Z,3.53
2022-07-31T21:55:33.818Z,3.53
2022-07-31T22:00:37.776Z,4.53
2022-07-31T22:05:59.907Z,4.05
2022-07-31T22:11:03.271Z,4.72
2022-07-31T22:16:07.675Z,5.22
2022-07-31T22:21:13.023Z,4.82
2022-07-31T22:26:16.829Z,4.53
2022-07-31T22:31:20.589Z,4.75
2022-07-31T22:36:26.890Z,5.72
2022-07-31T22:41:30.553Z,5.57
2022-07-31T22:46:34.812Z,6.18
2022-07-31T22:51:42.642Z,6.65
2022-07-31T22:56:49.531Z,7.45
2022-07-31T23:01:52.945Z,6.88
2022-07-31T23:06:57.994Z,7.22
2022-07-31T23:12:02.715Z,8.32
2022-07-31T23:17:06.273Z,6.70
2022-07-31T23:22:11.018Z,7.97
2022-07-31T23:27:14.475Z,8.55
2022-07-31T23:32:17.800Z,15.05
2022-07-31T23:37:22.574Z,14.88
2022-07-31T23:42:41.273Z,14.90
2022-07-31T23:47:46.880Z,18.75
2022-07-31T23:52:51.648Z,27.17
2022-07-31T23:57:55.220Z,27.45
